sensor_id;sensor_type;location;lat;lon;timestamp;temperature;humidity
55369;DHT22;41247;49.736;8.752;2022-07-29T00:03:04;20.30;99.90
55369;DHT22;41247;49.736;8.752;2022-07-29T00:06:45;20.20;99.90
55369;DHT22;41247;49.736;8.752;2022-07-29T00:10:26;20.20;99.90
55369;DHT22;41247;49.736;8.752;2022-07-29T00:14:06;20.20;99.90
55369;DHT22;41247;49.736;8.752;2022-07-29T00:17:50;20.20;99.90
55369;DHT22;41247;49.736;8.752;2022-07-29T00:21:30;20.20;99.90
55369;DHT22;41247;49.736;8.752;2022-07-29T00:25:12;20.20;99.90
55369;DHT22;41247;49.736;8.752;2022-07-29T00:28:53;20.10;99.90
55369;DHT22;41247;49.736;8.752;2022-07-29T00:32:33;20.10;99.90
55369;DHT22;41247;49.736;8.752;2022-07-29T00:36:14;20.00;99.90
55369;DHT22;41247;49.736;8.752;2022-07-29T00:39:55;19.90;99.90
55369;DHT22;41247;49.736;8.752;2022-07-29T00:43:35;19.80;99.90
55369;DHT22;41247;49.736;8.752;2022-07-29T00:47:16;19.70;99.90
55369;DHT22;41247;49.736;8.752;2022-07-29T00:50:58;19.60;99.90
55369;DHT22;41247;49.736;8.752;2022-07-29T00:54:40;19.50;99.90
55369;DHT22;41247;49.736;8.752;2022-07-29T00:58:21;19.30;99.90
55369;DHT22;41247;49.736;8.752;2022-07-29T01:02:03;19.10;99.90
55369;DHT22;41247;49.736;8.752;2022-07-29T01:05:45;18.90;99.90
55369;DHT22;41247;49.736;8.752;2022-07-29T01:09:26;18.80;99.90
55369;DHT22;41247;49.736;8.752;2022-07-29T01:13:08;18.50;99.90
55369;DHT22;41247;49.736;8.752;2022-07-29T01:17:00;18.30;99.90
55369;DHT22;41247;49.736;8.752;2022-07-29T01:29:24;17.60;99.90
55369;DHT22;41247;49.736;8.752;2022-07-29T01:33:11;17.50;99.90
55369;DHT22;41247;49.736;8.752;2022-07-29T01:37:22;17.30;99.90
55369;DHT22;41247;49.736;8.752;2022-07-29T01:41:09;17.20;99.90
55369;DHT22;41247;49.736;8.752;2022-07-29T01:49:10;16.90;99.90
55369;DHT22;41247;49.736;8.752;2022-07-29T01:52:56;16.90;99.90
55369;DHT22;41247;49.736;8.752;2022-07-29T01:56:40;17.00;99.90
55369;DHT22;41247;49.736;8.752;2022-07-29T02:00:23;17.00;99.90
55369;DHT22;41247;49.736;8.752;2022-07-29T02:04:07;17.10;99.90
55369;DHT22;41247;49.736;8.752;2022-07-29T02:07:51;17.20;99.90
55369;DHT22;41247;49.736;8.752;2022-07-29T02:11:33;17.20;99.90
55369;DHT22;41247;49.736;8.752;2022-07-29T02:15:16;17.20;99.90
55369;DHT22;41247;49.736;8.752;2022-07-29T02:19:01;17.20;99.90
55369;DHT22;41247;49.736;8.752;2022-07-29T02:22:43;17.20;99.90
55369;DHT22;41247;49.736;8.752;2022-07-29T02:26:26;17.10;99.90
55369;DHT22;41247;49.736;8.752;2022-07-29T02:30:08;17.10;99.90
55369;DHT22;41247;49.736;8.752;2022-07-29T02:33:50;17.10;99.90
55369;DHT22;41247;49.736;8.752;2022-07-29T02:37:32;17.10;99.90
55369;DHT22;41247;49.736;8.752;2022-07-29T02:41:35;17.00;99.90
55369;DHT22;41247;49.736;8.752;2022-07-29T02:45:21;17.10;99.90
55369;DHT22;41247;49.736;8.752;2022-07-29T02:53:18;16.90;99.90
55369;DHT22;41247;49.736;8.752;2022-07-29T02:57:03;17.00;99.90
55369;DHT22;41247;49.736;8.752;2022-07-29T03:00:51;17.00;99.90
55369;DHT22;41247;49.736;8.752;2022-07-29T03:04:32;17.00;99.90
55369;DHT22;41247;49.736;8.752;2022-07-29T03:08:15;17.10;99.90
55369;DHT22;41247;49.736;8.752;2022-07-29T03:11:57;17.00;99.90
55369;DHT22;41247;49.736;8.752;2022-07-29T03:15:38;17.00;99.90
55369;DHT22;41247;49.736;8.752;2022-07-29T03:19:19;17.10;99.90
55369;DHT22;41247;49.736;8.752;2022-07-29T03:23:00;17.10;99.90
55369;DHT22;41247;49.736;8.752;2022-07-29T03:26:40;17.20;99.90
55369;DHT22;41247;49.736;8.752;2022-07-29T03:30:21;17.20;99.90
55369;DHT22;41247;49.736;8.752;2022-07-29T03:34:02;17.30;99.90
55369;DHT22;41247;49.736;8.752;2022-07-29T03:37:44;17.20;99.90
55369;DHT22;41247;49.736;8.752;2022-07-29T03:41:25;17.20;99.90
55369;DHT22;41247;49.736;8.752;2022-07-29T03:45:07;17.30;99.90
55369;DHT22;41247;49.736;8.752;2022-07-29T03:48:53;17.30;99.90
55369;DHT22;41247;49.736;8.752;2022-07-29T03:52:36;17.40;99.90
55369;DHT22;41247;49.736;8.752;2022-07-29T03:56:20;17.40;99.90
55369;DHT22;41247;49.736;8.752;2022-07-29T04:00:03;17.30;99.90
55369;DHT22;41247;49.736;8.752;2022-07-29T04:03:44;17.30;99.90
55369;DHT22;41247;49.736;8.752;2022-07-29T04:07:25;17.30;99.90
55369;DHT22;41247;49.736;8.752;2022-07-29T04:11:06;17.30;99.90
55369;DHT22;41247;49.736;8.752;2022-07-29T04:14:47;17.30;99.90
55369;DHT22;41247;49.736;8.752;2022-07-29T04:18:27;17.30;99.90
55369;DHT22;41247;49.736;8.752;2022-07-29T04:22:08;17.30;99.90
55369;DHT22;41247;49.736;8.752;2022-07-29T04:25:48;17.40;99.90
55369;DHT22;41247;49.736;8.752;2022-07-29T04:29:29;17.50;99.90
55369;DHT22;41247;49.736;8.752;2022-07-29T04:33:10;17.50;99.90
55369;DHT22;41247;49.736;8.752;2022-07-29T04:36:50;17.50;99.90
55369;DHT22;41247;49.736;8.752;2022-07-29T04:40:31;17.50;99.90
55369;DHT22;41247;49.736;8.752;2022-07-29T04:44:12;17.40;99.90
55369;DHT22;41247;49.736;8.752;2022-07-29T04:47:53;17.30;99.90
55369;DHT22;41247;49.736;8.752;2022-07-29T04:51:34;17.20;99.90
55369;DHT22;41247;49.736;8.752;2022-07-29T04:55:15;17.00;99.90
55369;DHT22;41247;49.736;8.752;2022-07-29T04:58:55;16.90;99.90
55369;DHT22;41247;49.736;8.752;2022-07-29T05:02:36;16.80;99.90
55369;DHT22;41247;49.736;8.752;2022-07-29T05:06:17;16.80;99.90
55369;DHT22;41247;49.736;8.752;2022-07-29T05:09:57;16.70;99.90
55369;DHT22;41247;49.736;8.752;2022-07-29T05:13:38;16.60;99.90
55369;DHT22;41247;49.736;8.752;2022-07-29T05:17:19;16.60;99.90
55369;DHT22;41247;49.736;8.752;2022-07-29T05:20:59;16.60;99.90
55369;DHT22;41247;49.736;8.752;2022-07-29T05:24:40;16.60;99.90
55369;DHT22;41247;49.736;8.752;2022-07-29T05:28:21;16.50;99.90
55369;DHT22;41247;49.736;8.752;2022-07-29T05:32:01;16.60;99.90
55369;DHT22;41247;49.736;8.752;2022-07-29T05:35:42;16.60;99.90
55369;DHT22;41247;49.736;8.752;2022-07-29T05:39:24;16.60;99.90
55369;DHT22;41247;49.736;8.752;2022-07-29T05:43:05;16.60;99.90
55369;DHT22;41247;49.736;8.752;2022-07-29T05:46:45;16.60;99.90
55369;DHT22;41247;49.736;8.752;2022-07-29T05:50:27;16.70;99.90
55369;DHT22;41247;49.736;8.752;2022-07-29T05:54:08;16.70;99.90
55369;DHT22;41247;49.736;8.752;2022-07-29T05:57:48;16.80;99.90
55369;DHT22;41247;49.736;8.752;2022-07-29T06:01:29;16.90;99.90
55369;DHT22;41247;49.736;8.752;2022-07-29T06:05:09;17.00;99.90
55369;DHT22;41247;49.736;8.752;2022-07-29T06:08:50;17.10;99.90
55369;DHT22;41247;49.736;8.752;2022-07-29T06:12:31;17.20;99.90
55369;DHT22;41247;49.736;8.752;2022-07-29T06:16:11;17.30;99.90
55369;DHT22;41247;49.736;8.752;2022-07-29T06:19:52;17.40;99.90
55369;DHT22;41247;49.736;8.752;2022-07-29T06:23:32;17.50;99.90
55369;DHT22;41247;49.736;8.752;2022-07-29T06:27:13;17.60;99.90
55369;DHT22;41247;49.736;8.752;2022-07-29T06:30:54;17.80;99.90
55369;DHT22;41247;49.736;8.752;2022-07-29T06:34:35;18.00;99.90
55369;DHT22;41247;49.736;8.752;2022-07-29T06:38:16;18.30;99.90
55369;DHT22;41247;49.736;8.752;2022-07-29T06:41:57;18.50;99.90
55369;DHT22;41247;49.736;8.752;2022-07-29T06:45:37;18.90;99.90
55369;DHT22;41247;49.736;8.752;2022-07-29T06:49:18;19.40;99.90
55369;DHT22;41247;49.736;8.752;2022-07-29T06:52:59;19.90;99.90
55369;DHT22;41247;49.736;8.752;2022-07-29T06:56:39;20.40;99.90
55369;DHT22;41247;49.736;8.752;2022-07-29T07:00:20;20.80;99.90
55369;DHT22;41247;49.736;8.752;2022-07-29T07:04:00;21.10;99.90
55369;DHT22;41247;49.736;8.752;2022-07-29T07:07:41;21.20;99.90
55369;DHT22;41247;49.736;8.752;2022-07-29T07:11:22;21.50;99.90
55369;DHT22;41247;49.736;8.752;2022-07-29T07:15:02;21.80;99.90
55369;DHT22;41247;49.736;8.752;2022-07-29T07:18:43;22.00;99.90
55369;DHT22;41247;49.736;8.752;2022-07-29T07:22:24;22.20;99.90
55369;DHT22;41247;49.736;8.752;2022-07-29T07:26:05;22.30;99.90
55369;DHT22;41247;49.736;8.752;2022-07-29T07:29:45;22.40;99.90
55369;DHT22;41247;49.736;8.752;2022-07-29T07:33:26;22.50;99.90
55369;DHT22;41247;49.736;8.752;2022-07-29T07:37:06;22.70;99.90
55369;DHT22;41247;49.736;8.752;2022-07-29T07:40:47;22.80;99.90
55369;DHT22;41247;49.736;8.752;2022-07-29T07:44:28;22.90;99.90
55369;DHT22;41247;49.736;8.752;2022-07-29T07:48:08;22.80;99.90
55369;DHT22;41247;49.736;8.752;2022-07-29T07:51:49;23.00;99.90
55369;DHT22;41247;49.736;8.752;2022-07-29T07:55:30;22.90;99.90
55369;DHT22;41247;49.736;8.752;2022-07-29T07:59:10;23.00;99.90
55369;DHT22;41247;49.736;8.752;2022-07-29T08:02:51;23.50;99.90
55369;DHT22;41247;49.736;8.752;2022-07-29T08:06:31;23.70;99.90
55369;DHT22;41247;49.736;8.752;2022-07-29T08:10:14;23.70;99.90
55369;DHT22;41247;49.736;8.752;2022-07-29T08:13:55;23.50;99.90
55369;DHT22;41247;49.736;8.752;2022-07-29T08:17:36;23.50;99.90
55369;DHT22;41247;49.736;8.752;2022-07-29T08:21:17;23.40;99.90
55369;DHT22;41247;49.736;8.752;2022-07-29T08:24:58;23.30;99.90
55369;DHT22;41247;49.736;8.752;2022-07-29T08:28:43;23.60;99.90
55369;DHT22;41247;49.736;8.752;2022-07-29T08:32:24;23.90;99.90
55369;DHT22;41247;49.736;8.752;2022-07-29T08:36:06;23.80;99.90
55369;DHT22;41247;49.736;8.752;2022-07-29T08:39:46;23.70;99.90
55369;DHT22;41247;49.736;8.752;2022-07-29T08:43:28;24.10;99.90
55369;DHT22;41247;49.736;8.752;2022-07-29T08:47:09;24.40;99.90
55369;DHT22;41247;49.736;8.752;2022-07-29T08:50:54;24.90;99.90
55369;DHT22;41247;49.736;8.752;2022-07-29T08:54:36;25.30;99.90
55369;DHT22;41247;49.736;8.752;2022-07-29T08:58:17;25.30;99.90
55369;DHT22;41247;49.736;8.752;2022-07-29T09:01:59;25.20;99.90
55369;DHT22;41247;49.736;8.752;2022-07-29T09:05:43;25.30;99.90
55369;DHT22;41247;49.736;8.752;2022-07-29T09:09:25;25.80;99.90
55369;DHT22;41247;49.736;8.752;2022-07-29T09:13:07;26.00;99.90
55369;DHT22;41247;49.736;8.752;2022-07-29T09:16:55;26.10;99.90
55369;DHT22;41247;49.736;8.752;2022-07-29T09:20:36;26.10;99.90
55369;DHT22;41247;49.736;8.752;2022-07-29T09:24:17;26.00;99.90
55369;DHT22;41247;49.736;8.752;2022-07-29T09:28:15;25.90;99.90
55369;DHT22;41247;49.736;8.752;2022-07-29T09:31:57;25.90;99.90
55369;DHT22;41247;49.736;8.752;2022-07-29T09:35:37;25.80;99.90
55369;DHT22;41247;49.736;8.752;2022-07-29T09:39:35;25.70;99.90
55369;DHT22;41247;49.736;8.752;2022-07-29T09:43:18;25.90;99.90
55369;DHT22;41247;49.736;8.752;2022-07-29T09:47:02;26.30;99.90
55369;DHT22;41247;49.736;8.752;2022-07-29T09:50:45;26.40;99.90
55369;DHT22;41247;49.736;8.752;2022-07-29T09:54:26;26.50;99.90
55369;DHT22;41247;49.736;8.752;2022-07-29T09:58:21;26.80;99.90
55369;DHT22;41247;49.736;8.752;2022-07-29T10:02:11;27.00;99.90
55369;DHT22;41247;49.736;8.752;2022-07-29T10:06:24;27.10;99.90
55369;DHT22;41247;49.736;8.752;2022-07-29T10:10:05;27.40;99.90
55369;DHT22;41247;49.736;8.752;2022-07-29T10:13:48;27.70;99.90
55369;DHT22;41247;49.736;8.752;2022-07-29T10:17:29;27.40;99.90
55369;DHT22;41247;49.736;8.752;2022-07-29T10:21:12;27.50;99.90
55369;DHT22;41247;49.736;8.752;2022-07-29T10:24:54;27.40;99.90
55369;DHT22;41247;49.736;8.752;2022-07-29T10:28:35;27.70;99.90
55369;DHT22;41247;49.736;8.752;2022-07-29T10:36:59;27.70;99.90
55369;DHT22;41247;49.736;8.752;2022-07-29T10:41:11;28.50;99.90
55369;DHT22;41247;49.736;8.752;2022-07-29T10:44:53;28.70;99.90
55369;DHT22;41247;49.736;8.752;2022-07-29T10:48:34;28.40;99.90
55369;DHT22;41247;49.736;8.752;2022-07-29T10:52:15;28.20;99.90
55369;DHT22;41247;49.736;8.752;2022-07-29T10:55:56;28.50;99.90
55369;DHT22;41247;49.736;8.752;2022-07-29T10:59:36;28.80;99.90
55369;DHT22;41247;49.736;8.752;2022-07-29T11:07:23;28.90;99.90
55369;DHT22;41247;49.736;8.752;2022-07-29T11:14:59;29.10;99.90
55369;DHT22;41247;49.736;8.752;2022-07-29T11:22:52;29.10;99.90
55369;DHT22;41247;49.736;8.752;2022-07-29T11:26:33;29.40;99.90
55369;DHT22;41247;49.736;8.752;2022-07-29T11:30:13;29.50;99.90
55369;DHT22;41247;49.736;8.752;2022-07-29T11:33:54;29.80;99.90
55369;DHT22;41247;49.736;8.752;2022-07-29T11:37:35;29.80;99.90
55369;DHT22;41247;49.736;8.752;2022-07-29T11:41:26;30.00;99.90
55369;DHT22;41247;49.736;8.752;2022-07-29T11:45:11;30.40;99.90
55369;DHT22;41247;49.736;8.752;2022-07-29T11:48:52;30.70;99.90
55369;DHT22;41247;49.736;8.752;2022-07-29T11:52:41;30.80;99.90
55369;DHT22;41247;49.736;8.752;2022-07-29T11:56:25;30.90;99.90
55369;DHT22;41247;49.736;8.752;2022-07-29T12:00:12;30.60;99.90
55369;DHT22;41247;49.736;8.752;2022-07-29T12:04:03;30.90;99.90
55369;DHT22;41247;49.736;8.752;2022-07-29T12:07:48;30.90;99.90
55369;DHT22;41247;49.736;8.752;2022-07-29T12:11:28;30.70;99.90
55369;DHT22;41247;49.736;8.752;2022-07-29T12:15:14;31.00;99.90
55369;DHT22;41247;49.736;8.752;2022-07-29T12:18:57;31.40;99.90
55369;DHT22;41247;49.736;8.752;2022-07-29T12:22:41;31.80;99.90
55369;DHT22;41247;49.736;8.752;2022-07-29T12:26:22;32.10;99.90
55369;DHT22;41247;49.736;8.752;2022-07-29T12:30:05;32.50;99.90
55369;DHT22;41247;49.736;8.752;2022-07-29T12:33:53;32.60;99.90
55369;DHT22;41247;49.736;8.752;2022-07-29T12:37:34;32.70;99.90
55369;DHT22;41247;49.736;8.752;2022-07-29T12:41:16;32.20;99.90
55369;DHT22;41247;49.736;8.752;2022-07-29T12:44:56;31.60;99.90
55369;DHT22;41247;49.736;8.752;2022-07-29T12:48:39;31.50;99.90
55369;DHT22;41247;49.736;8.752;2022-07-29T12:52:33;31.70;99.90
55369;DHT22;41247;49.736;8.752;2022-07-29T12:56:17;32.10;99.90
55369;DHT22;41247;49.736;8.752;2022-07-29T13:00:09;32.50;99.90
55369;DHT22;41247;49.736;8.752;2022-07-29T13:03:56;32.60;99.90
55369;DHT22;41247;49.736;8.752;2022-07-29T13:07:38;32.80;99.90
55369;DHT22;41247;49.736;8.752;2022-07-29T13:15:19;32.50;99.90
55369;DHT22;41247;49.736;8.752;2022-07-29T13:19:11;32.70;99.90
55369;DHT22;41247;49.736;8.752;2022-07-29T13:22:52;33.00;99.90
55369;DHT22;41247;49.736;8.752;2022-07-29T13:26:32;32.70;99.90
55369;DHT22;41247;49.736;8.752;2022-07-29T13:30:13;32.80;99.90
55369;DHT22;41247;49.736;8.752;2022-07-29T13:33:54;32.90;99.90
55369;DHT22;41247;49.736;8.752;2022-07-29T13:37:35;32.70;99.90
55369;DHT22;41247;49.736;8.752;2022-07-29T13:41:16;32.20;99.90
55369;DHT22;41247;49.736;8.752;2022-07-29T13:44:57;31.80;99.90
55369;DHT22;41247;49.736;8.752;2022-07-29T13:48:38;31.70;99.90
55369;DHT22;41247;49.736;8.752;2022-07-29T13:52:19;31.20;99.90
55369;DHT22;41247;49.736;8.752;2022-07-29T13:56:00;31.20;99.90
55369;DHT22;41247;49.736;8.752;2022-07-29T13:59:41;31.60;99.90
55369;DHT22;41247;49.736;8.752;2022-07-29T14:03:22;32.10;99.90
55369;DHT22;41247;49.736;8.752;2022-07-29T14:07:03;32.20;99.90
55369;DHT22;41247;49.736;8.752;2022-07-29T14:10:44;31.90;99.90
55369;DHT22;41247;49.736;8.752;2022-07-29T14:14:24;31.70;99.90
55369;DHT22;41247;49.736;8.752;2022-07-29T14:18:05;31.70;99.90
55369;DHT22;41247;49.736;8.752;2022-07-29T14:21:46;31.10;99.90
55369;DHT22;41247;49.736;8.752;2022-07-29T14:25:26;30.60;99.90
55369;DHT22;41247;49.736;8.752;2022-07-29T14:29:07;30.30;99.90
55369;DHT22;41247;49.736;8.752;2022-07-29T14:32:47;30.20;99.90
55369;DHT22;41247;49.736;8.752;2022-07-29T14:36:28;30.20;99.90
55369;DHT22;41247;49.736;8.752;2022-07-29T14:40:10;30.40;99.90
55369;DHT22;41247;49.736;8.752;2022-07-29T14:43:51;30.60;99.90
55369;DHT22;41247;49.736;8.752;2022-07-29T14:47:31;30.40;99.90
55369;DHT22;41247;49.736;8.752;2022-07-29T14:51:12;30.20;99.90
55369;DHT22;41247;49.736;8.752;2022-07-29T14:54:53;29.80;99.90
55369;DHT22;41247;49.736;8.752;2022-07-29T14:58:33;29.60;99.90
55369;DHT22;41247;49.736;8.752;2022-07-29T15:02:14;29.60;99.90
55369;DHT22;41247;49.736;8.752;2022-07-29T15:05:55;29.70;99.90
55369;DHT22;41247;49.736;8.752;2022-07-29T15:09:35;30.20;99.90
55369;DHT22;41247;49.736;8.752;2022-07-29T15:13:16;30.40;99.90
55369;DHT22;41247;49.736;8.752;2022-07-29T15:16:57;30.40;99.90
55369;DHT22;41247;49.736;8.752;2022-07-29T15:20:37;30.20;99.90
55369;DHT22;41247;49.736;8.752;2022-07-29T15:24:18;30.20;99.90
55369;DHT22;41247;49.736;8.752;2022-07-29T15:27:59;30.40;99.90
55369;DHT22;41247;49.736;8.752;2022-07-29T15:31:40;30.50;99.90
55369;DHT22;41247;49.736;8.752;2022-07-29T15:35:21;30.40;99.90
55369;DHT22;41247;49.736;8.752;2022-07-29T15:39:01;30.60;99.90
55369;DHT22;41247;49.736;8.752;2022-07-29T15:42:42;30.70;99.90
55369;DHT22;41247;49.736;8.752;2022-07-29T15:46:23;30.60;99.90
55369;DHT22;41247;49.736;8.752;2022-07-29T15:50:05;30.30;99.90
55369;DHT22;41247;49.736;8.752;2022-07-29T15:53:46;29.80;99.90
55369;DHT22;41247;49.736;8.752;2022-07-29T15:57:26;29.40;99.90
55369;DHT22;41247;49.736;8.752;2022-07-29T16:01:07;28.70;99.90
55369;DHT22;41247;49.736;8.752;2022-07-29T16:04:48;28.30;99.90
55369;DHT22;41247;49.736;8.752;2022-07-29T16:08:28;27.90;99.90
55369;DHT22;41247;49.736;8.752;2022-07-29T16:12:09;27.40;99.90
55369;DHT22;41247;49.736;8.752;2022-07-29T16:15:50;27.10;99.90
55369;DHT22;41247;49.736;8.752;2022-07-29T16:19:30;26.70;99.90
55369;DHT22;41247;49.736;8.752;2022-07-29T16:23:11;26.30;99.90
55369;DHT22;41247;49.736;8.752;2022-07-29T16:26:51;25.80;99.90
55369;DHT22;41247;49.736;8.752;2022-07-29T16:30:32;25.60;99.90
55369;DHT22;41247;49.736;8.752;2022-07-29T16:34:14;25.40;99.90
55369;DHT22;41247;49.736;8.752;2022-07-29T16:37:54;25.10;99.90
55369;DHT22;41247;49.736;8.752;2022-07-29T16:41:35;25.00;99.90
55369;DHT22;41247;49.736;8.752;2022-07-29T16:45:16;25.00;99.90
55369;DHT22;41247;49.736;8.752;2022-07-29T16:48:57;25.10;99.90
55369;DHT22;41247;49.736;8.752;2022-07-29T16:52:37;25.30;99.90
55369;DHT22;41247;49.736;8.752;2022-07-29T16:56:18;25.30;99.90
55369;DHT22;41247;49.736;8.752;2022-07-29T16:59:58;25.50;99.90
55369;DHT22;41247;49.736;8.752;2022-07-29T17:03:39;25.70;99.90
55369;DHT22;41247;49.736;8.752;2022-07-29T17:07:20;25.70;99.90
55369;DHT22;41247;49.736;8.752;2022-07-29T17:11:00;25.60;99.90
55369;DHT22;41247;49.736;8.752;2022-07-29T17:14:41;25.30;99.90
55369;DHT22;41247;49.736;8.752;2022-07-29T17:18:21;25.00;99.90
55369;DHT22;41247;49.736;8.752;2022-07-29T17:22:03;24.80;99.90
55369;DHT22;41247;49.736;8.752;2022-07-29T17:25:44;24.70;99.90
55369;DHT22;41247;49.736;8.752;2022-07-29T17:29:25;24.70;99.90
55369;DHT22;41247;49.736;8.752;2022-07-29T17:33:05;24.40;99.90
55369;DHT22;41247;49.736;8.752;2022-07-29T17:36:46;24.20;99.90
55369;DHT22;41247;49.736;8.752;2022-07-29T17:40:27;24.10;99.90
55369;DHT22;41247;49.736;8.752;2022-07-29T17:44:07;24.00;99.90
55369;DHT22;41247;49.736;8.752;2022-07-29T17:47:48;23.90;99.90
55369;DHT22;41247;49.736;8.752;2022-07-29T17:51:29;23.70;99.90
55369;DHT22;41247;49.736;8.752;2022-07-29T17:55:09;23.90;99.90
55369;DHT22;41247;49.736;8.752;2022-07-29T17:58:50;23.90;99.90
55369;DHT22;41247;49.736;8.752;2022-07-29T18:02:30;23.60;99.90
55369;DHT22;41247;49.736;8.752;2022-07-29T18:06:11;23.30;99.90
55369;DHT22;41247;49.736;8.752;2022-07-29T18:09:52;23.10;99.90
55369;DHT22;41247;49.736;8.752;2022-07-29T18:13:32;22.80;99.90
55369;DHT22;41247;49.736;8.752;2022-07-29T18:17:13;22.60;99.90
55369;DHT22;41247;49.736;8.752;2022-07-29T18:20:54;22.40;99.90
55369;DHT22;41247;49.736;8.752;2022-07-29T18:24:34;22.30;99.90
55369;DHT22;41247;49.736;8.752;2022-07-29T18:28:15;22.20;99.90
55369;DHT22;41247;49.736;8.752;2022-07-29T18:31:56;22.10;99.90
55369;DHT22;41247;49.736;8.752;2022-07-29T18:35:36;22.00;99.90
55369;DHT22;41247;49.736;8.752;2022-07-29T18:39:17;21.90;99.90
55369;DHT22;41247;49.736;8.752;2022-07-29T18:42:58;21.80;99.90
55369;DHT22;41247;49.736;8.752;2022-07-29T18:46:38;21.60;99.90
55369;DHT22;41247;49.736;8.752;2022-07-29T18:50:19;21.50;99.90
55369;DHT22;41247;49.736;8.752;2022-07-29T18:53:59;21.50;99.90
55369;DHT22;41247;49.736;8.752;2022-07-29T18:57:40;21.40;99.90
55369;DHT22;41247;49.736;8.752;2022-07-29T19:01:20;21.30;99.90
55369;DHT22;41247;49.736;8.752;2022-07-29T19:05:01;21.20;99.90
55369;DHT22;41247;49.736;8.752;2022-07-29T19:08:42;21.10;99.90
55369;DHT22;41247;49.736;8.752;2022-07-29T19:12:22;21.10;99.90
55369;DHT22;41247;49.736;8.752;2022-07-29T19:16:04;21.00;99.90
55369;DHT22;41247;49.736;8.752;2022-07-29T19:19:45;21.00;99.90
55369;DHT22;41247;49.736;8.752;2022-07-29T19:23:25;20.80;99.90
55369;DHT22;41247;49.736;8.752;2022-07-29T19:27:06;20.70;99.90
55369;DHT22;41247;49.736;8.752;2022-07-29T19:30:47;20.50;99.90
55369;DHT22;41247;49.736;8.752;2022-07-29T19:34:28;20.20;99.90
55369;DHT22;41247;49.736;8.752;2022-07-29T19:38:09;20.00;99.90
55369;DHT22;41247;49.736;8.752;2022-07-29T19:41:49;19.80;99.90
55369;DHT22;41247;49.736;8.752;2022-07-29T19:45:31;19.60;99.90
55369;DHT22;41247;49.736;8.752;2022-07-29T19:49:12;19.40;99.90
55369;DHT22;41247;49.736;8.752;2022-07-29T19:52:52;19.30;99.90
55369;DHT22;41247;49.736;8.752;2022-07-29T19:56:33;19.20;99.90
55369;DHT22;41247;49.736;8.752;2022-07-29T20:00:14;19.10;99.90
55369;DHT22;41247;49.736;8.752;2022-07-29T20:03:56;19.00;99.90
55369;DHT22;41247;49.736;8.752;2022-07-29T20:07:38;19.10;99.90
55369;DHT22;41247;49.736;8.752;2022-07-29T20:11:18;19.10;99.90
55369;DHT22;41247;49.736;8.752;2022-07-29T20:14:59;19.10;99.90
55369;DHT22;41247;49.736;8.752;2022-07-29T20:18:40;19.10;99.90
55369;DHT22;41247;49.736;8.752;2022-07-29T20:22:21;19.10;99.90
55369;DHT22;41247;49.736;8.752;2022-07-29T20:26:01;19.10;99.90
55369;DHT22;41247;49.736;8.752;2022-07-29T20:29:42;19.10;99.90
55369;DHT22;41247;49.736;8.752;2022-07-29T20:33:22;19.10;99.90
55369;DHT22;41247;49.736;8.752;2022-07-29T20:37:03;19.10;99.90
55369;DHT22;41247;49.736;8.752;2022-07-29T20:40:44;19.00;99.90
55369;DHT22;41247;49.736;8.752;2022-07-29T20:44:24;18.90;99.90
55369;DHT22;41247;49.736;8.752;2022-07-29T20:48:05;18.90;99.90
55369;DHT22;41247;49.736;8.752;2022-07-29T20:51:46;18.90;99.90
55369;DHT22;41247;49.736;8.752;2022-07-29T20:55:26;18.90;99.90
55369;DHT22;41247;49.736;8.752;2022-07-29T20:59:07;18.80;99.90
55369;DHT22;41247;49.736;8.752;2022-07-29T21:02:48;18.70;99.90
55369;DHT22;41247;49.736;8.752;2022-07-29T21:06:29;18.60;99.90
55369;DHT22;41247;49.736;8.752;2022-07-29T21:10:10;18.60;99.90
55369;DHT22;41247;49.736;8.752;2022-07-29T21:13:51;18.50;99.90
55369;DHT22;41247;49.736;8.752;2022-07-29T21:17:32;18.50;99.90
55369;DHT22;41247;49.736;8.752;2022-07-29T21:21:15;18.40;99.90
55369;DHT22;41247;49.736;8.752;2022-07-29T21:24:55;18.20;99.90
55369;DHT22;41247;49.736;8.752;2022-07-29T21:28:36;18.10;99.90
55369;DHT22;41247;49.736;8.752;2022-07-29T21:32:17;18.00;99.90
55369;DHT22;41247;49.736;8.752;2022-07-29T21:35:58;17.90;99.90
55369;DHT22;41247;49.736;8.752;2022-07-29T21:39:39;17.70;99.90
55369;DHT22;41247;49.736;8.752;2022-07-29T21:43:20;17.60;99.90
55369;DHT22;41247;49.736;8.752;2022-07-29T21:47:01;17.50;99.90
55369;DHT22;41247;49.736;8.752;2022-07-29T21:50:41;17.50;99.90
55369;DHT22;41247;49.736;8.752;2022-07-29T21:54:22;17.60;99.90
55369;DHT22;41247;49.736;8.752;2022-07-29T21:58:03;17.60;99.90
55369;DHT22;41247;49.736;8.752;2022-07-29T22:01:44;17.50;99.90
55369;DHT22;41247;49.736;8.752;2022-07-29T22:05:25;17.50;99.90
55369;DHT22;41247;49.736;8.752;2022-07-29T22:09:05;17.40;99.90
55369;DHT22;41247;49.736;8.752;2022-07-29T22:12:49;17.40;99.90
55369;DHT22;41247;49.736;8.752;2022-07-29T22:16:30;17.40;99.90
55369;DHT22;41247;49.736;8.752;2022-07-29T22:20:11;17.40;99.90
55369;DHT22;41247;49.736;8.752;2022-07-29T22:23:52;17.30;99.90
55369;DHT22;41247;49.736;8.752;2022-07-29T22:27:33;17.30;99.90
55369;DHT22;41247;49.736;8.752;2022-07-29T22:31:13;17.30;99.90
55369;DHT22;41247;49.736;8.752;2022-07-29T22:34:54;17.30;99.90
55369;DHT22;41247;49.736;8.752;2022-07-29T22:38:35;17.30;99.90
55369;DHT22;41247;49.736;8.752;2022-07-29T22:42:15;17.30;99.90
55369;DHT22;41247;49.736;8.752;2022-07-29T22:45:56;17.30;99.90
55369;DHT22;41247;49.736;8.752;2022-07-29T22:49:37;17.20;99.90
55369;DHT22;41247;49.736;8.752;2022-07-29T22:53:17;17.20;99.90
55369;DHT22;41247;49.736;8.752;2022-07-29T22:56:58;17.10;99.90
55369;DHT22;41247;49.736;8.752;2022-07-29T23:00:38;17.20;99.90
55369;DHT22;41247;49.736;8.752;2022-07-29T23:04:19;17.20;99.90
55369;DHT22;41247;49.736;8.752;2022-07-29T23:08:00;17.20;99.90
55369;DHT22;41247;49.736;8.752;2022-07-29T23:11:40;17.20;99.90
55369;DHT22;41247;49.736;8.752;2022-07-29T23:15:21;17.10;99.90
55369;DHT22;41247;49.736;8.752;2022-07-29T23:19:01;17.00;99.90
55369;DHT22;41247;49.736;8.752;2022-07-29T23:22:42;17.00;99.90
55369;DHT22;41247;49.736;8.752;2022-07-29T23:26:23;17.00;99.90
55369;DHT22;41247;49.736;8.752;2022-07-29T23:30:04;17.00;99.90
55369;DHT22;41247;49.736;8.752;2022-07-29T23:33:45;16.90;99.90
55369;DHT22;41247;49.736;8.752;2022-07-29T23:37:25;16.90;99.90
55369;DHT22;41247;49.736;8.752;2022-07-29T23:41:06;16.80;99.90
55369;DHT22;41247;49.736;8.752;2022-07-29T23:44:47;16.70;99.90
55369;DHT22;41247;49.736;8.752;2022-07-29T23:48:27;16.60;99.90
55369;DHT22;41247;49.736;8.752;2022-07-29T23:52:08;16.60;99.90
55369;DHT22;41247;49.736;8.752;2022-07-29T23:55:49;16.50;99.90
55369;DHT22;41247;49.736;8.752;2022-07-29T23:59:29;16.50;99.90
